sensor_id;sensor_type;location;lat;lon;timestamp;pressure;altitude;pressure_sealevel;temperature;humidity
45763;BME280;37512;52.408;13.356;2023-03-04T00:02:27;101364.56;;;0.96;100.00
45763;BME280;37512;52.408;13.356;2023-03-04T00:06:29;101360.34;;;1.09;100.00
45763;BME280;37512;52.408;13.356;2023-03-04T00:10:30;101370.03;;;0.91;100.00
45763;BME280;37512;52.408;13.356;2023-03-04T00:14:31;101367.81;;;0.98;100.00
45763;BME280;37512;52.408;13.356;2023-03-04T00:18:33;101364.38;;;0.82;100.00
45763;BME280;37512;52.408;13.356;2023-03-04T00:22:34;101358.59;;;0.89;100.00
45763;BME280;37512;52.408;13.356;2023-03-04T00:26:36;101356.91;;;0.93;100.00
45763;BME280;37512;52.408;13.356;2023-03-04T00:30:37;101335.06;;;0.93;100.00
45763;BME280;37512;52.408;13.356;2023-03-04T00:34:39;101328.69;;;1.02;100.00
45763;BME280;37512;52.408;13.356;2023-03-04T00:38:40;101325.03;;;1.17;100.00
45763;BME280;37512;52.408;13.356;2023-03-04T00:42:42;101318.59;;;1.03;100.00
45763;BME280;37512;52.408;13.356;2023-03-04T00:46:44;101326.97;;;1.12;100.00
45763;BME280;37512;52.408;13.356;2023-03-04T00:50:45;101332.44;;;1.12;100.00
45763;BME280;37512;52.408;13.356;2023-03-04T00:54:47;101318.16;;;1.20;100.00
45763;BME280;37512;52.408;13.356;2023-03-04T00:58:48;101313.75;;;1.24;100.00
45763;BME280;37512;52.408;13.356;2023-03-04T01:02:50;101308.28;;;1.24;100.00
45763;BME280;37512;52.408;13.356;2023-03-04T01:06:51;101312.84;;;1.34;100.00
45763;BME280;37512;52.408;13.356;2023-03-04T01:10:53;101314.16;;;1.36;100.00
45763;BME280;37512;52.408;13.356;2023-03-04T01:14:54;101305.34;;;1.44;100.00
45763;BME280;37512;52.408;13.356;2023-03-04T01:18:56;101307.13;;;1.30;100.00
45763;BME280;37512;52.408;13.356;2023-03-04T01:22:57;101305.41;;;1.39;100.00
45763;BME280;37512;52.408;13.356;2023-03-04T01:26:59;101296.38;;;1.39;100.00
45763;BME280;37512;52.408;13.356;2023-03-04T01:31:01;101289.75;;;1.45;100.00
45763;BME280;37512;52.408;13.356;2023-03-04T01:35:03;101280.88;;;1.29;100.00
45763;BME280;37512;52.408;13.356;2023-03-04T01:39:05;101268.59;;;1.27;100.00
45763;BME280;37512;52.408;13.356;2023-03-04T01:43:11;101268.25;;;1.33;100.00
45763;BME280;37512;52.408;13.356;2023-03-04T01:47:17;101277.66;;;1.51;100.00
45763;BME280;37512;52.408;13.356;2023-03-04T01:51:19;101269.50;;;1.46;100.00
45763;BME280;37512;52.408;13.356;2023-03-04T01:55:22;101260.38;;;1.56;100.00
45763;BME280;37512;52.408;13.356;2023-03-04T01:59:27;101262.16;;;1.65;100.00
45763;BME280;37512;52.408;13.356;2023-03-04T02:03:30;101255.88;;;1.65;100.00
45763;BME280;37512;52.408;13.356;2023-03-04T02:07:32;101253.06;;;1.70;100.00
45763;BME280;37512;52.408;13.356;2023-03-04T02:11:35;101253.06;;;1.94;100.00
45763;BME280;37512;52.408;13.356;2023-03-04T02:15:43;101258.06;;;1.87;100.00
45763;BME280;37512;52.408;13.356;2023-03-04T02:19:48;101253.19;;;1.84;100.00
45763;BME280;37512;52.408;13.356;2023-03-04T02:28:15;101236.22;;;1.82;100.00
45763;BME280;37512;52.408;13.356;2023-03-04T02:32:17;101234.78;;;1.90;100.00
45763;BME280;37512;52.408;13.356;2023-03-04T02:36:19;101231.28;;;2.03;100.00
45763;BME280;37512;52.408;13.356;2023-03-04T02:40:27;101219.97;;;2.09;100.00
45763;BME280;37512;52.408;13.356;2023-03-04T02:44:32;101213.16;;;2.07;100.00
45763;BME280;37512;52.408;13.356;2023-03-04T02:48:37;101214.75;;;2.13;100.00
45763;BME280;37512;52.408;13.356;2023-03-04T02:52:38;101205.41;;;2.14;100.00
45763;BME280;37512;52.408;13.356;2023-03-04T02:56:44;101190.09;;;2.13;100.00
45763;BME280;37512;52.408;13.356;2023-03-04T03:00:46;101193.44;;;2.10;100.00
45763;BME280;37512;52.408;13.356;2023-03-04T03:04:48;101199.72;;;2.11;100.00
45763;BME280;37512;52.408;13.356;2023-03-04T03:08:49;101198.13;;;2.23;100.00
45763;BME280;37512;52.408;13.356;2023-03-04T03:12:51;101196.22;;;2.05;100.00
45763;BME280;37512;52.408;13.356;2023-03-04T03:16:53;101195.13;;;2.06;100.00
45763;BME280;37512;52.408;13.356;2023-03-04T03:20:54;101185.22;;;2.10;100.00
45763;BME280;37512;52.408;13.356;2023-03-04T03:24:56;101196.88;;;2.35;100.00
45763;BME280;37512;52.408;13.356;2023-03-04T03:28:57;101195.88;;;2.30;100.00
45763;BME280;37512;52.408;13.356;2023-03-04T03:32:59;101193.63;;;2.33;100.00
45763;BME280;37512;52.408;13.356;2023-03-04T03:37:00;101191.78;;;2.28;100.00
45763;BME280;37512;52.408;13.356;2023-03-04T03:41:02;101184.31;;;2.34;100.00
45763;BME280;37512;52.408;13.356;2023-03-04T03:45:03;101184.06;;;2.30;100.00
45763;BME280;37512;52.408;13.356;2023-03-04T03:49:05;101185.03;;;2.20;100.00
45763;BME280;37512;52.408;13.356;2023-03-04T03:53:07;101179.72;;;2.29;100.00
45763;BME280;37512;52.408;13.356;2023-03-04T03:57:08;101175.50;;;2.18;100.00
45763;BME280;37512;52.408;13.356;2023-03-04T04:01:09;101157.16;;;2.18;100.00
45763;BME280;37512;52.408;13.356;2023-03-04T04:05:11;101157.06;;;2.23;100.00
45763;BME280;37512;52.408;13.356;2023-03-04T04:09:13;101148.34;;;2.21;100.00
45763;BME280;37512;52.408;13.356;2023-03-04T04:13:15;101153.75;;;2.26;100.00
45763;BME280;37512;52.408;13.356;2023-03-04T04:17:16;101152.03;;;2.30;100.00
45763;BME280;37512;52.408;13.356;2023-03-04T04:21:17;101154.03;;;2.25;100.00
45763;BME280;37512;52.408;13.356;2023-03-04T04:25:19;101145.44;;;2.32;100.00
45763;BME280;37512;52.408;13.356;2023-03-04T04:29:20;101147.03;;;2.33;100.00
45763;BME280;37512;52.408;13.356;2023-03-04T04:33:24;101148.97;;;2.51;100.00
45763;BME280;37512;52.408;13.356;2023-03-04T04:37:25;101149.13;;;2.41;100.00
45763;BME280;37512;52.408;13.356;2023-03-04T04:41:38;101137.34;;;2.40;100.00
45763;BME280;37512;52.408;13.356;2023-03-04T04:45:40;101133.53;;;2.55;100.00
45763;BME280;37512;52.408;13.356;2023-03-04T04:49:42;101141.03;;;2.49;100.00
45763;BME280;37512;52.408;13.356;2023-03-04T04:53:43;101129.97;;;2.55;100.00
45763;BME280;37512;52.408;13.356;2023-03-04T04:57:45;101123.59;;;2.59;100.00
45763;BME280;37512;52.408;13.356;2023-03-04T05:01:46;101124.88;;;2.81;100.00
45763;BME280;37512;52.408;13.356;2023-03-04T05:05:48;101124.22;;;2.70;100.00
45763;BME280;37512;52.408;13.356;2023-03-04T05:09:52;101117.75;;;2.80;100.00
45763;BME280;37512;52.408;13.356;2023-03-04T05:13:54;101121.72;;;2.87;100.00
45763;BME280;37512;52.408;13.356;2023-03-04T05:22:04;101120.72;;;2.97;100.00
45763;BME280;37512;52.408;13.356;2023-03-04T05:26:09;101127.91;;;3.07;100.00
45763;BME280;37512;52.408;13.356;2023-03-04T05:30:11;101123.84;;;3.04;100.00
45763;BME280;37512;52.408;13.356;2023-03-04T05:34:13;101125.88;;;2.99;100.00
45763;BME280;37512;52.408;13.356;2023-03-04T05:38:17;101118.47;;;2.99;100.00
45763;BME280;37512;52.408;13.356;2023-03-04T05:42:19;101114.50;;;3.05;100.00
45763;BME280;37512;52.408;13.356;2023-03-04T05:46:20;101119.28;;;3.00;100.00
45763;BME280;37512;52.408;13.356;2023-03-04T05:50:26;101122.94;;;3.09;100.00
45763;BME280;37512;52.408;13.356;2023-03-04T05:54:27;101114.44;;;3.10;100.00
45763;BME280;37512;52.408;13.356;2023-03-04T05:58:29;101119.28;;;3.13;100.00
45763;BME280;37512;52.408;13.356;2023-03-04T06:02:30;101122.13;;;3.08;100.00
45763;BME280;37512;52.408;13.356;2023-03-04T06:06:32;101109.94;;;3.14;100.00
45763;BME280;37512;52.408;13.356;2023-03-04T06:10:33;101125.28;;;3.16;100.00
45763;BME280;37512;52.408;13.356;2023-03-04T06:14:35;101131.16;;;3.23;100.00
45763;BME280;37512;52.408;13.356;2023-03-04T06:18:37;101121.41;;;3.17;100.00
45763;BME280;37512;52.408;13.356;2023-03-04T06:22:38;101117.25;;;3.05;100.00
45763;BME280;37512;52.408;13.356;2023-03-04T06:26:40;101122.22;;;3.03;100.00
45763;BME280;37512;52.408;13.356;2023-03-04T06:30:41;101123.84;;;3.04;100.00
45763;BME280;37512;52.408;13.356;2023-03-04T06:34:43;101128.66;;;3.12;100.00
45763;BME280;37512;52.408;13.356;2023-03-04T06:38:44;101126.19;;;3.11;100.00
45763;BME280;37512;52.408;13.356;2023-03-04T06:42:46;101129.53;;;3.08;100.00
45763;BME280;37512;52.408;13.356;2023-03-04T06:46:48;101141.44;;;3.17;100.00
45763;BME280;37512;52.408;13.356;2023-03-04T06:50:49;101140.09;;;3.14;100.00
45763;BME280;37512;52.408;13.356;2023-03-04T06:54:51;101137.47;;;3.09;100.00
45763;BME280;37512;52.408;13.356;2023-03-04T06:58:52;101141.75;;;3.16;100.00
45763;BME280;37512;52.408;13.356;2023-03-04T07:02:54;101140.94;;;3.01;100.00
45763;BME280;37512;52.408;13.356;2023-03-04T07:06:55;101144.38;;;3.21;100.00
45763;BME280;37512;52.408;13.356;2023-03-04T07:10:57;101137.28;;;3.20;100.00
45763;BME280;37512;52.408;13.356;2023-03-04T07:14:58;101151.47;;;3.08;100.00
45763;BME280;37512;52.408;13.356;2023-03-04T07:19:00;101144.78;;;3.28;100.00
45763;BME280;37512;52.408;13.356;2023-03-04T07:23:01;101149.16;;;3.29;100.00
45763;BME280;37512;52.408;13.356;2023-03-04T07:27:03;101142.16;;;3.23;100.00
45763;BME280;37512;52.408;13.356;2023-03-04T07:31:22;101151.06;;;3.28;100.00
45763;BME280;37512;52.408;13.356;2023-03-04T07:35:24;101158.81;;;3.40;100.00
45763;BME280;37512;52.408;13.356;2023-03-04T07:39:26;101150.47;;;3.31;100.00
45763;BME280;37512;52.408;13.356;2023-03-04T07:43:27;101150.59;;;3.26;100.00
45763;BME280;37512;52.408;13.356;2023-03-04T07:47:29;101141.94;;;3.47;100.00
45763;BME280;37512;52.408;13.356;2023-03-04T07:51:31;101149.25;;;3.51;100.00
45763;BME280;37512;52.408;13.356;2023-03-04T07:55:32;101155.56;;;3.24;100.00
45763;BME280;37512;52.408;13.356;2023-03-04T07:59:34;101146.81;;;3.50;100.00
45763;BME280;37512;52.408;13.356;2023-03-04T08:03:36;101153.31;;;3.54;100.00
45763;BME280;37512;52.408;13.356;2023-03-04T08:07:37;101148.34;;;3.42;100.00
45763;BME280;37512;52.408;13.356;2023-03-04T08:11:40;101150.66;;;3.21;100.00
45763;BME280;37512;52.408;13.356;2023-03-04T08:15:42;101157.41;;;3.29;100.00
45763;BME280;37512;52.408;13.356;2023-03-04T08:19:44;101148.41;;;3.51;100.00
45763;BME280;37512;52.408;13.356;2023-03-04T08:23:46;101151.16;;;3.51;100.00
45763;BME280;37512;52.408;13.356;2023-03-04T08:27:48;101146.13;;;3.81;100.00
45763;BME280;37512;52.408;13.356;2023-03-04T08:31:50;101142.50;;;3.71;100.00
45763;BME280;37512;52.408;13.356;2023-03-04T08:35:53;101140.38;;;3.68;100.00
45763;BME280;37512;52.408;13.356;2023-03-04T08:39:54;101136.97;;;3.85;100.00
45763;BME280;37512;52.408;13.356;2023-03-04T08:43:57;101129.91;;;4.07;100.00
45763;BME280;37512;52.408;13.356;2023-03-04T08:47:59;101127.78;;;3.67;100.00
45763;BME280;37512;52.408;13.356;2023-03-04T08:52:00;101128.47;;;3.73;100.00
45763;BME280;37512;52.408;13.356;2023-03-04T08:56:02;101120.22;;;4.32;100.00
45763;BME280;37512;52.408;13.356;2023-03-04T09:00:05;101119.03;;;4.02;100.00
45763;BME280;37512;52.408;13.356;2023-03-04T09:04:06;101116.78;;;4.26;100.00
45763;BME280;37512;52.408;13.356;2023-03-04T09:08:08;101111.78;;;4.06;100.00
45763;BME280;37512;52.408;13.356;2023-03-04T09:12:09;101112.72;;;4.01;100.00
45763;BME280;37512;52.408;13.356;2023-03-04T09:16:13;101111.03;;;4.14;100.00
45763;BME280;37512;52.408;13.356;2023-03-04T09:20:15;101103.16;;;3.98;100.00
45763;BME280;37512;52.408;13.356;2023-03-04T09:24:17;101103.47;;;4.19;100.00
45763;BME280;37512;52.408;13.356;2023-03-04T09:28:18;101092.47;;;4.19;100.00
45763;BME280;37512;52.408;13.356;2023-03-04T09:32:20;101107.06;;;4.51;100.00
45763;BME280;37512;52.408;13.356;2023-03-04T09:36:22;101100.47;;;4.30;100.00
45763;BME280;37512;52.408;13.356;2023-03-04T09:40:40;101095.09;;;4.47;100.00
45763;BME280;37512;52.408;13.356;2023-03-04T09:44:42;101092.13;;;4.66;100.00
45763;BME280;37512;52.408;13.356;2023-03-04T09:48:51;101095.53;;;4.72;100.00
45763;BME280;37512;52.408;13.356;2023-03-04T09:53:18;101098.69;;;4.88;100.00
45763;BME280;37512;52.408;13.356;2023-03-04T10:01:33;101090.72;;;4.77;100.00
45763;BME280;37512;52.408;13.356;2023-03-04T10:14:02;101101.31;;;5.50;100.00
45763;BME280;37512;52.408;13.356;2023-03-04T10:18:13;101089.00;;;5.39;100.00
45763;BME280;37512;52.408;13.356;2023-03-04T10:22:30;101093.19;;;5.28;100.00
45763;BME280;37512;52.408;13.356;2023-03-04T10:26:33;101088.66;;;5.32;100.00
45763;BME280;37512;52.408;13.356;2023-03-04T10:35:11;101099.19;;;5.38;98.09
45763;BME280;37512;52.408;13.356;2023-03-04T10:39:23;101093.69;;;5.38;94.93
45763;BME280;37512;52.408;13.356;2023-03-04T10:43:26;101086.41;;;5.34;94.72
45763;BME280;37512;52.408;13.356;2023-03-04T10:47:30;101092.56;;;5.48;94.26
45763;BME280;37512;52.408;13.356;2023-03-04T10:51:41;101096.81;;;5.54;92.66
45763;BME280;37512;52.408;13.356;2023-03-04T10:55:44;101081.09;;;5.81;93.61
45763;BME280;37512;52.408;13.356;2023-03-04T11:04:22;101093.91;;;5.68;88.11
45763;BME280;37512;52.408;13.356;2023-03-04T11:08:25;101088.38;;;5.77;88.67
45763;BME280;37512;52.408;13.356;2023-03-04T11:12:32;101082.25;;;5.97;88.07
45763;BME280;37512;52.408;13.356;2023-03-04T11:16:34;101091.00;;;6.08;93.56
45763;BME280;37512;52.408;13.356;2023-03-04T11:20:45;101092.94;;;6.07;96.28
45763;BME280;37512;52.408;13.356;2023-03-04T11:24:58;101095.03;;;6.19;95.57
45763;BME280;37512;52.408;13.356;2023-03-04T11:29:11;101090.44;;;6.58;95.00
45763;BME280;37512;52.408;13.356;2023-03-04T11:37:39;101105.81;;;5.37;97.19
45763;BME280;37512;52.408;13.356;2023-03-04T11:41:46;101106.34;;;5.57;97.67
45763;BME280;37512;52.408;13.356;2023-03-04T12:07:20;101097.72;;;5.32;89.18
45763;BME280;37512;52.408;13.356;2023-03-04T12:29:55;101095.22;;;5.05;90.38
45763;BME280;37512;52.408;13.356;2023-03-04T12:38:30;101105.31;;;5.35;87.26
45763;BME280;37512;52.408;13.356;2023-03-04T12:55:44;101097.31;;;5.08;87.65
45763;BME280;37512;52.408;13.356;2023-03-04T13:04:09;101091.44;;;5.49;85.16
45763;BME280;37512;52.408;13.356;2023-03-04T13:12:52;101085.13;;;5.92;82.77
45763;BME280;37512;52.408;13.356;2023-03-04T13:17:01;101085.63;;;5.68;82.45
45763;BME280;37512;52.408;13.356;2023-03-04T13:25:39;101075.88;;;5.44;82.58
45763;BME280;37512;52.408;13.356;2023-03-04T13:29:45;101092.31;;;5.10;84.02
45763;BME280;37512;52.408;13.356;2023-03-04T13:33:49;101101.91;;;5.21;84.69
45763;BME280;37512;52.408;13.356;2023-03-04T13:37:57;101098.19;;;5.26;83.61
45763;BME280;37512;52.408;13.356;2023-03-04T13:42:00;101099.44;;;6.12;97.56
45763;BME280;37512;52.408;13.356;2023-03-04T13:50:31;101095.66;;;5.64;84.96
45763;BME280;37512;52.408;13.356;2023-03-04T13:54:36;101090.97;;;5.73;84.28
45763;BME280;37512;52.408;13.356;2023-03-04T13:58:38;101094.19;;;5.58;83.80
45763;BME280;37512;52.408;13.356;2023-03-04T14:02:40;101101.44;;;5.45;82.77
45763;BME280;37512;52.408;13.356;2023-03-04T14:06:43;101092.53;;;5.31;81.96
45763;BME280;37512;52.408;13.356;2023-03-04T14:10:54;101095.00;;;5.41;80.88
45763;BME280;37512;52.408;13.356;2023-03-04T14:15:16;101086.06;;;5.35;80.96
45763;BME280;37512;52.408;13.356;2023-03-04T14:19:24;101084.69;;;5.15;81.45
45763;BME280;37512;52.408;13.356;2023-03-04T14:23:31;101084.69;;;5.15;80.37
45763;BME280;37512;52.408;13.356;2023-03-04T14:27:34;101086.69;;;5.23;81.43
45763;BME280;37512;52.408;13.356;2023-03-04T14:31:37;101086.03;;;5.18;80.36
45763;BME280;37512;52.408;13.356;2023-03-04T14:35:38;101087.81;;;5.22;80.83
45763;BME280;37512;52.408;13.356;2023-03-04T14:39:49;101088.81;;;5.35;83.23
45763;BME280;37512;52.408;13.356;2023-03-04T14:43:59;101087.94;;;5.17;80.43
45763;BME280;37512;52.408;13.356;2023-03-04T14:48:05;101090.09;;;5.29;79.22
45763;BME280;37512;52.408;13.356;2023-03-04T14:52:38;101079.75;;;5.35;77.70
45763;BME280;37512;52.408;13.356;2023-03-04T14:56:43;101089.47;;;4.92;76.44
45763;BME280;37512;52.408;13.356;2023-03-04T15:00:45;101086.16;;;5.13;75.70
45763;BME280;37512;52.408;13.356;2023-03-04T15:04:48;101089.53;;;5.01;73.66
45763;BME280;37512;52.408;13.356;2023-03-04T15:09:07;101084.19;;;5.05;74.34
45763;BME280;37512;52.408;13.356;2023-03-04T15:13:09;101076.19;;;4.86;73.79
45763;BME280;37512;52.408;13.356;2023-03-04T15:17:31;101084.66;;;4.98;73.83
45763;BME280;37512;52.408;13.356;2023-03-04T15:21:39;101085.00;;;5.05;73.06
45763;BME280;37512;52.408;13.356;2023-03-04T15:25:43;101083.44;;;4.73;71.59
45763;BME280;37512;52.408;13.356;2023-03-04T15:29:44;101079.09;;;4.80;72.65
45763;BME280;37512;52.408;13.356;2023-03-04T15:33:46;101085.50;;;4.67;73.66
45763;BME280;37512;52.408;13.356;2023-03-04T15:37:49;101080.63;;;4.64;74.71
45763;BME280;37512;52.408;13.356;2023-03-04T15:41:52;101080.69;;;4.73;75.46
45763;BME280;37512;52.408;13.356;2023-03-04T15:45:55;101081.94;;;4.67;76.75
45763;BME280;37512;52.408;13.356;2023-03-04T15:49:57;101070.03;;;4.49;79.14
45763;BME280;37512;52.408;13.356;2023-03-04T15:53:59;101072.88;;;4.35;79.66
45763;BME280;37512;52.408;13.356;2023-03-04T15:58:02;101072.34;;;4.55;79.02
45763;BME280;37512;52.408;13.356;2023-03-04T16:02:10;101062.97;;;4.56;77.47
45763;BME280;37512;52.408;13.356;2023-03-04T16:06:17;101057.78;;;4.55;75.63
45763;BME280;37512;52.408;13.356;2023-03-04T16:10:25;101050.38;;;4.33;76.06
45763;BME280;37512;52.408;13.356;2023-03-04T16:14:26;101052.84;;;4.12;76.22
45763;BME280;37512;52.408;13.356;2023-03-04T16:18:28;101051.28;;;4.19;76.35
45763;BME280;37512;52.408;13.356;2023-03-04T16:22:29;101057.38;;;4.39;75.28
45763;BME280;37512;52.408;13.356;2023-03-04T16:26:34;101067.44;;;4.44;75.08
45763;BME280;37512;52.408;13.356;2023-03-04T16:30:36;101060.94;;;4.17;75.43
45763;BME280;37512;52.408;13.356;2023-03-04T16:34:37;101064.97;;;4.33;75.20
45763;BME280;37512;52.408;13.356;2023-03-04T16:38:39;101065.47;;;4.44;75.29
45763;BME280;37512;52.408;13.356;2023-03-04T16:42:41;101061.72;;;4.09;75.45
45763;BME280;37512;52.408;13.356;2023-03-04T16:46:42;101061.94;;;4.21;76.33
45763;BME280;37512;52.408;13.356;2023-03-04T16:50:44;101072.94;;;4.21;76.86
45763;BME280;37512;52.408;13.356;2023-03-04T16:54:46;101067.38;;;4.12;77.75
45763;BME280;37512;52.408;13.356;2023-03-04T16:58:48;101071.41;;;4.06;78.29
45763;BME280;37512;52.408;13.356;2023-03-04T17:02:59;101070.69;;;4.01;79.99
45763;BME280;37512;52.408;13.356;2023-03-04T17:07:01;101079.59;;;4.20;78.87
45763;BME280;37512;52.408;13.356;2023-03-04T17:11:03;101073.06;;;3.93;80.48
45763;BME280;37512;52.408;13.356;2023-03-04T17:15:06;101087.25;;;4.09;80.00
45763;BME280;37512;52.408;13.356;2023-03-04T17:19:08;101088.06;;;4.10;79.45
45763;BME280;37512;52.408;13.356;2023-03-04T17:23:10;101095.59;;;3.82;80.86
45763;BME280;37512;52.408;13.356;2023-03-04T17:27:11;101097.28;;;3.91;82.30
45763;BME280;37512;52.408;13.356;2023-03-04T17:31:15;101096.94;;;4.07;81.56
45763;BME280;37512;52.408;13.356;2023-03-04T17:35:17;101107.28;;;4.10;82.35
45763;BME280;37512;52.408;13.356;2023-03-04T17:39:18;101114.94;;;4.13;81.24
45763;BME280;37512;52.408;13.356;2023-03-04T17:43:20;101102.28;;;4.12;81.53
45763;BME280;37512;52.408;13.356;2023-03-04T17:47:22;101103.59;;;3.92;82.51
45763;BME280;37512;52.408;13.356;2023-03-04T17:51:50;101099.16;;;3.82;84.15
45763;BME280;37512;52.408;13.356;2023-03-04T17:55:55;101106.09;;;4.02;82.98
45763;BME280;37512;52.408;13.356;2023-03-04T17:59:57;101107.09;;;3.84;84.23
45763;BME280;37512;52.408;13.356;2023-03-04T18:03:59;101108.81;;;3.80;85.29
45763;BME280;37512;52.408;13.356;2023-03-04T18:08:00;101103.28;;;3.93;85.56
45763;BME280;37512;52.408;13.356;2023-03-04T18:12:02;101101.84;;;3.60;87.26
45763;BME280;37512;52.408;13.356;2023-03-04T18:16:04;101098.94;;;3.92;86.60
45763;BME280;37512;52.408;13.356;2023-03-04T18:20:06;101103.47;;;3.74;88.92
45763;BME280;37512;52.408;13.356;2023-03-04T18:24:09;101094.78;;;3.81;87.16
45763;BME280;37512;52.408;13.356;2023-03-04T18:28:10;101093.69;;;3.68;88.68
45763;BME280;37512;52.408;13.356;2023-03-04T18:32:12;101093.50;;;3.65;88.79
45763;BME280;37512;52.408;13.356;2023-03-04T18:36:14;101099.41;;;3.94;93.66
45763;BME280;37512;52.408;13.356;2023-03-04T18:40:16;101098.47;;;3.99;92.14
45763;BME280;37512;52.408;13.356;2023-03-04T18:44:17;101094.09;;;3.75;90.25
45763;BME280;37512;52.408;13.356;2023-03-04T18:48:19;101094.66;;;3.86;89.73
45763;BME280;37512;52.408;13.356;2023-03-04T18:52:20;101089.19;;;3.86;89.41
45763;BME280;37512;52.408;13.356;2023-03-04T18:56:29;101091.75;;;3.69;90.17
45763;BME280;37512;52.408;13.356;2023-03-04T19:00:37;101098.31;;;3.59;91.12
45763;BME280;37512;52.408;13.356;2023-03-04T19:04:39;101087.44;;;3.54;92.92
45763;BME280;37512;52.408;13.356;2023-03-04T19:08:41;101090.53;;;3.75;91.50
45763;BME280;37512;52.408;13.356;2023-03-04T19:12:43;101090.41;;;3.80;91.48
45763;BME280;37512;52.408;13.356;2023-03-04T19:16:45;101095.25;;;3.97;91.44
45763;BME280;37512;52.408;13.356;2023-03-04T19:20:46;101101.63;;;3.70;92.07
45763;BME280;37512;52.408;13.356;2023-03-04T19:24:48;101102.03;;;3.77;91.81
45763;BME280;37512;52.408;13.356;2023-03-04T19:28:49;101100.13;;;3.64;93.00
45763;BME280;37512;52.408;13.356;2023-03-04T19:32:51;101101.25;;;3.63;93.80
45763;BME280;37512;52.408;13.356;2023-03-04T19:36:52;101098.91;;;3.70;93.46
45763;BME280;37512;52.408;13.356;2023-03-04T19:40:54;101101.16;;;3.54;94.57
45763;BME280;37512;52.408;13.356;2023-03-04T19:44:55;101096.69;;;3.58;93.54
45763;BME280;37512;52.408;13.356;2023-03-04T19:48:57;101095.94;;;3.66;93.10
45763;BME280;37512;52.408;13.356;2023-03-04T19:52:59;101106.25;;;3.61;94.73
45763;BME280;37512;52.408;13.356;2023-03-04T19:57:00;101101.63;;;3.70;93.91
45763;BME280;37512;52.408;13.356;2023-03-04T20:01:02;101099.00;;;3.65;94.76
45763;BME280;37512;52.408;13.356;2023-03-04T20:05:05;101106.94;;;3.52;95.13
45763;BME280;37512;52.408;13.356;2023-03-04T20:09:07;101105.97;;;3.34;97.33
45763;BME280;37512;52.408;13.356;2023-03-04T20:13:08;101113.47;;;3.43;96.45
45763;BME280;37512;52.408;13.356;2023-03-04T20:17:10;101111.84;;;3.42;96.51
45763;BME280;37512;52.408;13.356;2023-03-04T20:21:12;101110.66;;;3.34;98.06
45763;BME280;37512;52.408;13.356;2023-03-04T20:25:13;101103.78;;;3.59;96.75
45763;BME280;37512;52.408;13.356;2023-03-04T20:29:15;101110.25;;;3.13;100.00
45763;BME280;37512;52.408;13.356;2023-03-04T20:33:17;101110.53;;;3.39;99.84
45763;BME280;37512;52.408;13.356;2023-03-04T20:37:19;101112.19;;;3.26;100.00
45763;BME280;37512;52.408;13.356;2023-03-04T20:41:22;101116.94;;;3.21;100.00
45763;BME280;37512;52.408;13.356;2023-03-04T20:45:24;101111.66;;;3.38;100.00
45763;BME280;37512;52.408;13.356;2023-03-04T20:49:27;101119.88;;;3.38;100.00
45763;BME280;37512;52.408;13.356;2023-03-04T20:53:29;101117.75;;;3.35;99.53
45763;BME280;37512;52.408;13.356;2023-03-04T20:57:30;101108.91;;;3.52;99.51
45763;BME280;37512;52.408;13.356;2023-03-04T21:01:32;101106.59;;;3.18;100.00
45763;BME280;37512;52.408;13.356;2023-03-04T21:05:34;101110.44;;;3.17;100.00
45763;BME280;37512;52.408;13.356;2023-03-04T21:09:35;101108.63;;;3.12;100.00
45763;BME280;37512;52.408;13.356;2023-03-04T21:13:37;101105.88;;;2.98;100.00
45763;BME280;37512;52.408;13.356;2023-03-04T21:17:41;101102.84;;;3.00;99.68
45763;BME280;37512;52.408;13.356;2023-03-04T21:21:43;101092.88;;;3.31;97.45
45763;BME280;37512;52.408;13.356;2023-03-04T21:25:46;101091.13;;;3.35;96.55
45763;BME280;37512;52.408;13.356;2023-03-04T21:29:48;101093.16;;;3.30;96.57
45763;BME280;37512;52.408;13.356;2023-03-04T21:33:52;101089.50;;;3.21;97.07
45763;BME280;37512;52.408;13.356;2023-03-04T21:37:54;101094.09;;;3.11;97.27
45763;BME280;37512;52.408;13.356;2023-03-04T21:41:57;101089.13;;;3.00;98.46
45763;BME280;37512;52.408;13.356;2023-03-04T21:45:58;101090.44;;;3.16;98.26
45763;BME280;37512;52.408;13.356;2023-03-04T21:50:00;101093.59;;;3.09;98.21
45763;BME280;37512;52.408;13.356;2023-03-04T21:54:02;101090.44;;;3.02;99.65
45763;BME280;37512;52.408;13.356;2023-03-04T21:58:03;101083.63;;;2.86;100.00
45763;BME280;37512;52.408;13.356;2023-03-04T22:02:13;101078.34;;;3.03;99.50
45763;BME280;37512;52.408;13.356;2023-03-04T22:06:18;101066.78;;;3.06;99.37
45763;BME280;37512;52.408;13.356;2023-03-04T22:10:22;101065.34;;;2.95;99.43
45763;BME280;37512;52.408;13.356;2023-03-04T22:14:23;101052.56;;;3.04;99.16
45763;BME280;37512;52.408;13.356;2023-03-04T22:18:26;101052.84;;;3.03;100.00
45763;BME280;37512;52.408;13.356;2023-03-04T22:22:28;101057.03;;;3.00;100.00
45763;BME280;37512;52.408;13.356;2023-03-04T22:26:30;101062.22;;;2.88;100.00
45763;BME280;37512;52.408;13.356;2023-03-04T22:30:34;101056.72;;;2.88;100.00
45763;BME280;37512;52.408;13.356;2023-03-04T22:34:36;101058.16;;;2.85;99.56
45763;BME280;37512;52.408;13.356;2023-03-04T22:38:38;101046.97;;;2.82;100.00
45763;BME280;37512;52.408;13.356;2023-03-04T22:42:41;101050.91;;;2.48;100.00
45763;BME280;37512;52.408;13.356;2023-03-04T22:46:43;101046.28;;;2.62;100.00
45763;BME280;37512;52.408;13.356;2023-03-04T22:50:44;101043.81;;;2.61;100.00
45763;BME280;37512;52.408;13.356;2023-03-04T22:54:46;101037.53;;;2.74;100.00